Time;durP1;ratioP1;P1;durP2;ratioP2;P2;SDS_P1;SDS_P2;PMS_P1;PMS_P2;Temp;Humidity;BMP_temperature;BMP_pressure;BME280_temperature;BME280_humidity;BME280_pressure;Samples;Min_cycle;Max_cycle;Signal;HPM_P1;HPM_P2
2022/10/23 00:04:29;;;;;;;0.20;0.00;;;19.20;99.90;;;;;;26299354;22;20366;-70
2022/10/23 00:14:33;;;;;;;0.20;0.10;;;19.30;99.90;;;;;;26298277;22;20367;-69
2022/10/23 00:24:38;;;;;;;0.20;0.00;;;19.30;99.90;;;;;;26296157;22;20434;-68
2022/10/23 00:34:42;;;;;;;0.20;0.00;;;19.10;99.90;;;;;;26269561;22;20372;-69
2022/10/23 00:45:17;;;;;;;0.20;0.10;;;19.10;99.90;;;;;;26297664;22;20366;-69
2022/10/23 00:55:23;;;;;;;0.20;0.00;;;19.10;99.90;;;;;;26268869;22;20383;-71
2022/10/23 01:05:51;;;;;;;0.20;0.10;;;18.90;99.90;;;;;;26298357;22;20360;-71
2022/10/23 01:16:02;;;;;;;0.20;0.00;;;18.90;99.90;;;;;;26297941;22;20442;-70
2022/10/23 01:26:26;;;;;;;0.20;0.00;;;19.00;99.90;;;;;;26268696;22;20356;-71
2022/10/23 01:36:34;;;;;;;0.20;0.00;;;18.90;99.90;;;;;;26296108;22;20377;-68
2022/10/23 01:46:39;;;;;;;0.20;0.00;;;18.90;99.90;;;;;;26296151;22;20359;-68
2022/10/23 01:56:48;;;;;;;0.20;0.00;;;18.80;99.90;;;;;;26295405;22;20366;-68
2022/10/23 02:06:52;;;;;;;0.20;0.00;;;18.80;99.90;;;;;;26296489;22;20359;-69
2022/10/23 02:17:05;;;;;;;0.20;0.00;;;18.90;99.90;;;;;;26295311;22;20371;-69
2022/10/23 02:27:13;;;;;;;0.20;0.10;;;18.70;99.90;;;;;;26269688;22;20351;-70
2022/10/23 02:37:19;;;;;;;0.20;0.10;;;18.70;99.90;;;;;;26296157;22;20367;-69
2022/10/23 02:47:46;;;;;;;0.20;0.00;;;18.60;99.90;;;;;;26292928;22;20376;-69
2022/10/23 02:57:56;;;;;;;0.20;0.00;;;18.60;99.90;;;;;;26295541;22;20362;-69
2022/10/23 03:08:02;;;;;;;0.20;0.00;;;18.50;99.90;;;;;;26293952;22;20359;-69
2022/10/23 03:18:08;;;;;;;0.20;0.10;;;18.80;99.90;;;;;;26298289;22;20371;-69
2022/10/23 03:28:11;;;;;;;0.20;0.00;;;19.10;99.90;;;;;;26301311;22;20355;-70
2022/10/23 03:38:17;;;;;;;0.20;0.00;;;19.40;99.90;;;;;;26300744;22;20378;-69
2022/10/23 03:48:22;;;;;;;0.20;0.00;;;19.80;99.90;;;;;;26300483;22;20356;-69
2022/10/23 03:58:28;;;;;;;0.20;0.00;;;19.90;99.90;;;;;;26301184;22;20370;-70
2022/10/23 04:08:31;;;;;;;0.20;0.00;;;19.70;99.90;;;;;;26274519;22;20353;-70
2022/10/23 04:18:36;;;;;;;0.20;0.00;;;19.40;99.90;;;;;;26273487;22;20401;-69
2022/10/23 04:28:41;;;;;;;0.20;0.00;;;19.60;99.90;;;;;;26299437;22;20362;-68
2022/10/23 04:38:46;;;;;;;0.20;0.00;;;20.00;99.90;;;;;;26298336;22;20367;-69
2022/10/23 04:48:50;;;;;;;0.20;0.00;;;20.30;99.90;;;;;;26299590;22;20831;-69
2022/10/23 04:58:55;;;;;;;0.20;0.00;;;20.80;99.90;;;;;;26269597;22;20391;-70
2022/10/23 05:08:59;;;;;;;0.20;0.00;;;20.60;99.90;;;;;;26272603;22;20378;-69
2022/10/23 05:19:06;;;;;;;0.20;0.00;;;20.90;99.90;;;;;;26297221;22;20374;-69
2022/10/23 05:29:10;;;;;;;0.20;0.00;;;20.70;99.90;;;;;;26296617;22;20363;-69
2022/10/23 05:39:15;;;;;;;0.20;0.00;;;20.70;99.90;;;;;;26295185;22;20364;-71
2022/10/23 05:49:19;;;;;;;0.20;0.00;;;20.70;99.90;;;;;;26297954;22;20370;-70
2022/10/23 05:59:24;;;;;;;0.20;0.05;;;20.40;99.90;;;;;;26296285;22;20366;-69
2022/10/23 06:09:29;;;;;;;0.20;0.00;;;20.00;99.90;;;;;;26295699;22;20363;-70
2022/10/23 06:19:34;;;;;;;0.20;0.00;;;19.90;99.90;;;;;;26268634;22;20370;-69
2022/10/23 06:29:38;;;;;;;0.20;0.00;;;19.70;99.90;;;;;;26294980;22;20362;-68
2022/10/23 06:39:43;;;;;;;0.20;0.00;;;19.60;99.90;;;;;;26264659;22;20363;-69
2022/10/23 06:49:46;;;;;;;0.20;0.00;;;19.80;99.90;;;;;;26292265;22;20363;-69
2022/10/23 06:59:52;;;;;;;0.20;0.00;;;19.80;99.90;;;;;;26300943;22;20830;-68
2022/10/23 07:09:56;;;;;;;0.20;0.00;;;20.10;99.90;;;;;;26300686;22;20360;-70
2022/10/23 07:20:01;;;;;;;0.20;0.00;;;20.30;99.90;;;;;;26300081;22;20387;-68
2022/10/23 07:30:05;;;;;;;0.20;0.00;;;20.70;99.90;;;;;;26273203;22;20367;-69
2022/10/23 07:40:11;;;;;;;0.20;0.00;;;21.40;99.90;;;;;;26299280;22;20378;-69
2022/10/23 07:50:15;;;;;;;0.20;0.00;;;22.00;99.90;;;;;;26297373;22;20360;-69
2022/10/23 08:00:21;;;;;;;0.20;0.00;;;22.80;99.90;;;;;;26298847;22;20378;-68
2022/10/23 08:10:30;;;;;;;0.20;0.00;;;23.50;99.90;;;;;;26271436;22;20383;-69
2022/10/23 08:20:38;;;;;;;0.20;0.00;;;23.80;99.90;;;;;;26295749;22;20355;-69
2022/10/23 08:30:42;;;;;;;0.20;0.00;;;23.90;99.90;;;;;;26267314;22;20351;-69
2022/10/23 08:40:49;;;;;;;0.20;0.00;;;24.20;99.90;;;;;;26292783;22;20370;-69
2022/10/23 08:50:58;;;;;;;0.20;0.00;;;24.60;99.90;;;;;;26294538;22;20363;-69
2022/10/23 09:01:18;;;;;;;0.20;0.00;;;24.90;99.90;;;;;;26264462;22;20354;-69
2022/10/23 09:11:27;;;;;;;0.20;0.00;;;24.90;99.90;;;;;;26293242;22;20371;-70
2022/10/23 09:21:33;;;;;;;0.20;0.00;;;25.40;99.90;;;;;;26291641;22;20359;-68
2022/10/23 09:31:48;;;;;;;0.20;0.00;;;25.70;99.90;;;;;;26292718;22;20375;-68
2022/10/23 09:41:54;;;;;;;0.20;0.00;;;24.90;99.90;;;;;;26265686;22;20367;-69
2022/10/23 09:52:04;;;;;;;0.20;0.00;;;25.00;99.90;;;;;;26285993;22;20422;-69
2022/10/23 10:02:22;;;;;;;0.20;0.00;;;25.20;99.90;;;;;;26290462;22;20372;-68
2022/10/23 10:12:44;;;;;;;0.20;0.00;;;25.50;99.90;;;;;;26289536;22;20421;-68
2022/10/23 10:22:55;;;;;;;0.20;0.00;;;25.10;99.90;;;;;;26288807;22;20370;-69
2022/10/23 10:33:02;;;;;;;0.20;0.00;;;24.60;99.90;;;;;;26287645;22;20398;-69
2022/10/23 10:43:24;;;;;;;0.20;0.00;;;24.30;99.90;;;;;;26260661;22;20355;-69
2022/10/23 10:53:41;;;;;;;0.20;0.00;;;24.50;99.90;;;;;;26287526;22;20360;-68
2022/10/23 11:03:52;;;;;;;0.20;0.00;;;24.80;99.90;;;;;;26256951;22;21141;-70
2022/10/23 11:13:56;;;;;;;0.20;0.00;;;24.50;99.90;;;;;;26286917;22;20370;-69
2022/10/23 11:24:24;;;;;;;0.20;0.00;;;24.70;99.90;;;;;;26260726;22;20351;-69
2022/10/23 11:35:01;;;;;;;0.20;0.00;;;24.50;99.90;;;;;;26260074;22;21606;-72
2022/10/23 11:45:32;;;;;;;0.20;0.10;;;24.80;99.90;;;;;;26292595;22;20358;-71
2022/10/23 11:55:37;;;;;;;0.20;0.00;;;25.00;99.90;;;;;;26268653;22;20382;-69
2022/10/23 12:05:44;;;;;;;0.20;0.00;;;25.50;99.90;;;;;;26289000;22;20355;-71
2022/10/23 12:15:54;;;;;;;0.20;0.00;;;25.60;99.90;;;;;;26289475;22;20367;-73
2022/10/23 12:26:28;;;;;;;0.20;0.00;;;24.80;99.90;;;;;;26262493;22;20378;-69
2022/10/23 12:36:50;;;;;;;0.20;0.00;;;24.50;99.90;;;;;;26291984;22;20367;-69
2022/10/23 12:46:58;;;;;;;0.20;0.00;;;24.70;99.90;;;;;;26294936;22;20359;-69
2022/10/23 12:57:02;;;;;;;0.20;0.00;;;24.80;99.90;;;;;;26294628;22;20363;-70
2022/10/23 13:07:07;;;;;;;0.20;0.00;;;25.10;99.90;;;;;;26293119;22;20360;-70
2022/10/23 13:17:12;;;;;;;0.20;0.00;;;25.10;99.90;;;;;;26266722;22;20379;-69
2022/10/23 13:27:34;;;;;;;0.20;0.00;;;25.90;99.90;;;;;;26294133;22;20356;-68
2022/10/23 13:37:38;;;;;;;0.20;0.00;;;26.40;99.90;;;;;;26265883;22;20371;-70
2022/10/23 13:47:43;;;;;;;0.20;0.00;;;26.70;99.90;;;;;;26292882;22;20946;-70
2022/10/23 13:57:48;;;;;;;0.20;0.10;;;27.80;99.90;;;;;;26291121;22;20367;-68
2022/10/23 14:07:53;;;;;;;0.20;0.00;;;27.90;99.90;;;;;;26287716;22;20356;-69
2022/10/23 14:17:57;;;;;;;0.20;0.00;;;26.70;99.90;;;;;;26289319;22;20363;-70
2022/10/23 14:28:05;;;;;;;0.20;0.00;;;26.20;99.90;;;;;;26288070;22;20363;-68
2022/10/23 14:38:09;;;;;;;0.20;0.00;;;25.80;99.90;;;;;;26286598;22;20379;-69
2022/10/23 14:48:14;;;;;;;0.20;0.00;;;25.30;99.90;;;;;;26286444;22;20380;-69
2022/10/23 14:58:22;;;;;;;0.20;0.00;;;24.80;99.90;;;;;;26284830;22;20378;-70
2022/10/23 15:08:27;;;;;;;0.20;0.00;;;24.80;99.90;;;;;;26289766;22;20754;-70
2022/10/23 15:18:31;;;;;;;0.20;0.03;;;24.80;99.90;;;;;;26294059;22;20378;-68
2022/10/23 15:28:36;;;;;;;0.20;0.03;;;25.10;99.90;;;;;;26296249;22;21209;-69
2022/10/23 15:38:40;;;;;;;0.20;0.00;;;24.80;99.90;;;;;;26265576;22;20367;-70
2022/10/23 15:48:45;;;;;;;0.20;0.00;;;24.40;99.90;;;;;;26296024;22;20359;-68
2022/10/23 15:58:49;;;;;;;0.20;0.00;;;24.00;99.90;;;;;;26294639;22;20366;-68
2022/10/23 16:08:54;;;;;;;0.20;0.00;;;24.00;99.90;;;;;;26267010;22;20549;-70
2022/10/23 16:18:59;;;;;;;0.20;0.00;;;24.00;99.90;;;;;;26294669;22;20367;-71
2022/10/23 16:29:06;;;;;;;0.20;0.00;;;23.70;99.90;;;;;;26267285;22;20352;-70
2022/10/23 16:39:11;;;;;;;0.20;0.00;;;23.50;99.90;;;;;;26289154;22;20374;-70
2022/10/23 16:49:17;;;;;;;0.20;0.00;;;23.40;99.90;;;;;;26289744;22;20367;-71
2022/10/23 16:59:20;;;;;;;0.20;0.00;;;23.40;99.90;;;;;;26290925;22;20370;-69
2022/10/23 17:09:29;;;;;;;0.20;0.00;;;23.00;99.90;;;;;;26288056;22;20433;-73
2022/10/23 17:19:33;;;;;;;0.20;0.00;;;22.90;99.90;;;;;;26263121;22;20371;-68
2022/10/23 17:29:54;;;;;;;0.20;0.00;;;22.80;99.90;;;;;;26284068;22;20355;-71
2022/10/23 17:40:01;;;;;;;0.20;0.00;;;22.80;99.90;;;;;;26284608;22;20374;-73
2022/10/23 17:50:08;;;;;;;0.20;0.00;;;22.90;99.90;;;;;;26287753;22;20431;-70
2022/10/23 18:00:12;;;;;;;0.20;0.00;;;22.90;99.90;;;;;;26286872;22;20378;-68
2022/10/23 18:10:17;;;;;;;0.20;0.00;;;22.70;99.90;;;;;;26260338;22;20351;-71
2022/10/23 18:20:21;;;;;;;0.20;0.00;;;22.60;99.90;;;;;;26286419;22;20382;-70
2022/10/23 18:30:26;;;;;;;0.20;0.00;;;22.80;99.90;;;;;;26286577;22;20366;-70
2022/10/23 18:40:30;;;;;;;0.20;0.00;;;22.70;99.90;;;;;;26264558;22;20436;-69
2022/10/23 18:50:37;;;;;;;0.20;0.00;;;22.60;99.90;;;;;;26293639;22;20348;-71
2022/10/23 19:00:41;;;;;;;0.20;0.00;;;22.00;99.90;;;;;;26270311;22;20378;-69
2022/10/23 19:10:47;;;;;;;0.20;0.00;;;21.70;99.90;;;;;;26297038;22;20363;-71
2022/10/23 19:20:51;;;;;;;0.20;0.00;;;21.70;99.90;;;;;;26291191;22;20367;-69
2022/10/23 19:30:56;;;;;;;0.20;0.00;;;21.30;99.90;;;;;;26292136;22;20359;-69
2022/10/23 19:41:00;;;;;;;0.20;0.00;;;21.40;99.90;;;;;;26295033;22;20373;-71
2022/10/23 19:51:07;;;;;;;0.20;0.00;;;21.30;99.90;;;;;;26267433;22;20454;-70
2022/10/23 20:01:13;;;;;;;0.20;0.00;;;21.30;99.90;;;;;;26292640;22;20399;-70
2022/10/23 20:11:21;;;;;;;0.20;0.00;;;21.10;99.90;;;;;;26292852;22;20360;-70
2022/10/23 20:21:25;;;;;;;0.20;0.00;;;21.00;99.90;;;;;;26292567;22;20516;-69
2022/10/23 20:31:30;;;;;;;0.20;0.00;;;20.80;99.90;;;;;;26293674;22;20378;-71
2022/10/23 20:41:36;;;;;;;0.20;0.00;;;20.80;99.90;;;;;;26263106;22;20370;-69
2022/10/23 20:51:41;;;;;;;0.20;0.00;;;20.50;99.90;;;;;;26292086;22;20359;-70
2022/10/23 21:01:48;;;;;;;0.20;0.00;;;20.50;99.90;;;;;;26293006;22;20374;-69
2022/10/23 21:11:53;;;;;;;0.20;0.00;;;20.20;99.90;;;;;;26290930;22;20343;-70
2022/10/23 21:21:57;;;;;;;0.20;0.00;;;20.10;99.90;;;;;;26259381;22;20374;-72
2022/10/23 21:32:02;;;;;;;0.20;0.00;;;19.90;99.90;;;;;;26292849;22;20364;-70
2022/10/23 21:42:06;;;;;;;0.20;0.00;;;19.80;99.90;;;;;;26266613;22;20374;-70
2022/10/23 21:52:11;;;;;;;0.20;0.00;;;19.80;99.90;;;;;;26291334;22;20351;-70
2022/10/23 22:02:19;;;;;;;0.20;0.00;;;19.80;99.90;;;;;;26291554;22;20363;-71
2022/10/23 22:12:25;;;;;;;0.20;0.00;;;19.50;99.90;;;;;;26262277;22;20366;-69
2022/10/23 22:22:29;;;;;;;0.20;0.00;;;19.80;99.90;;;;;;26291179;22;20359;-71
2022/10/23 22:32:35;;;;;;;0.20;0.00;;;19.80;99.90;;;;;;26291188;22;20443;-71
2022/10/23 22:42:38;;;;;;;0.20;0.00;;;20.50;99.90;;;;;;26290467;22;20427;-71
2022/10/23 22:52:43;;;;;;;0.20;0.00;;;20.70;99.90;;;;;;26292335;22;20374;-71
2022/10/23 23:02:48;;;;;;;0.20;0.00;;;20.70;99.90;;;;;;26265421;22;20375;-70
2022/10/23 23:12:53;;;;;;;0.20;0.00;;;21.00;99.90;;;;;;26294635;22;20363;-70
2022/10/23 23:22:57;;;;;;;0.20;0.00;;;21.60;99.90;;;;;;26263113;22;20367;-70
2022/10/23 23:33:03;;;;;;;0.20;0.00;;;21.80;99.90;;;;;;26241308;22;20391;-71
2022/10/23 23:43:07;;;;;;;0.20;0.00;;;21.30;99.90;;;;;;26273134;22;20390;-70
2022/10/23 23:53:12;;;;;;;0.20;0.00;;;21.00;99.90;;;;;;26299834;22;20362;-71
